createdAt,value
2022-09-17T00:01:41.678Z,100.00
2022-09-17T00:04:11.199Z,100.00
2022-09-17T00:06:39.495Z,100.00
2022-09-17T00:09:09.187Z,100.00
2022-09-17T00:11:41.601Z,100.00
2022-09-17T00:14:14.388Z,100.00
2022-09-17T00:16:47.070Z,100.00
2022-09-17T00:19:19.177Z,100.00
2022-09-17T00:21:47.721Z,100.00
2022-09-17T00:24:17.754Z,100.00
2022-09-17T00:26:46.336Z,100.00
2022-09-17T00:29:14.739Z,100.00
2022-09-17T00:31:44.505Z,100.00
2022-09-17T00:34:13.071Z,100.00
2022-09-17T00:36:41.566Z,100.00
2022-09-17T00:39:12.457Z,100.00
2022-09-17T00:41:41.238Z,100.00
2022-09-17T00:44:44.467Z,100.00
2022-09-17T00:47:26.223Z,100.00
2022-09-17T00:49:58.529Z,100.00
2022-09-17T00:52:31.039Z,100.00
2022-09-17T00:55:06.477Z,100.00
2022-09-17T00:57:35.446Z,100.00
2022-09-17T01:00:06.100Z,100.00
2022-09-17T01:02:36.615Z,100.00
2022-09-17T01:05:05.538Z,100.00
2022-09-17T01:07:53.354Z,100.00
2022-09-17T01:10:37.137Z,100.00
2022-09-17T01:13:19.611Z,100.00
2022-09-17T01:16:01.282Z,100.00
2022-09-17T01:18:58.695Z,100.00
2022-09-17T01:21:39.651Z,100.00
2022-09-17T01:24:54.947Z,100.00
2022-09-17T01:28:15.528Z,100.00
2022-09-17T01:31:05.635Z,100.00
2022-09-17T01:33:43.496Z,100.00
2022-09-17T01:36:23.475Z,100.00
2022-09-17T01:38:59.850Z,100.00
2022-09-17T01:41:34.280Z,100.00
2022-09-17T01:44:12.085Z,100.00
2022-09-17T01:46:47.937Z,100.00
2022-09-17T01:49:18.130Z,100.00
2022-09-17T01:51:49.655Z,100.00
2022-09-17T01:54:24.790Z,100.00
2022-09-17T01:56:59.434Z,100.00
2022-09-17T01:59:32.624Z,100.00
2022-09-17T02:02:08.352Z,100.00
2022-09-17T02:04:43.155Z,100.00
2022-09-17T02:07:16.160Z,100.00
2022-09-17T02:09:51.017Z,100.00
2022-09-17T02:12:25.372Z,100.00
2022-09-17T02:14:58.518Z,100.00
2022-09-17T02:17:33.307Z,100.00
2022-09-17T02:20:03.752Z,100.00
2022-09-17T02:22:40.604Z,100.00
2022-09-17T02:25:16.434Z,100.00
2022-09-17T02:27:53.603Z,100.00
2022-09-17T02:30:22.126Z,100.00
2022-09-17T02:32:52.105Z,100.00
2022-09-17T02:35:20.812Z,100.00
2022-09-17T02:37:49.466Z,100.00
2022-09-17T02:40:21.340Z,100.00
2022-09-17T02:43:09.576Z,100.00
2022-09-17T02:45:47.908Z,100.00
2022-09-17T02:48:36.201Z,100.00
2022-09-17T02:51:18.572Z,100.00
2022-09-17T02:53:56.938Z,100.00
2022-09-17T02:56:41.284Z,100.00
2022-09-17T02:59:19.876Z,100.00
2022-09-17T03:01:54.859Z,100.00
2022-09-17T03:04:28.571Z,100.00
2022-09-17T03:06:59.554Z,100.00
2022-09-17T03:09:28.121Z,100.00
2022-09-17T03:11:56.743Z,100.00
2022-09-17T03:14:25.314Z,100.00
2022-09-17T03:16:53.836Z,100.00
2022-09-17T03:19:22.376Z,100.00
2022-09-17T03:21:52.302Z,100.00
2022-09-17T03:24:20.851Z,100.00
2022-09-17T03:26:50.415Z,100.00
2022-09-17T03:29:19.156Z,100.00
2022-09-17T03:31:47.882Z,100.00
2022-09-17T03:34:16.561Z,100.00
2022-09-17T03:36:45.090Z,100.00
2022-09-17T03:39:15.095Z,100.00
2022-09-17T03:41:43.624Z,100.00
2022-09-17T03:44:12.524Z,100.00
2022-09-17T03:46:41.113Z,100.00
2022-09-17T03:49:09.969Z,100.00
2022-09-17T03:51:38.492Z,100.00
2022-09-17T03:54:07.231Z,100.00
2022-09-17T03:56:37.199Z,100.00
2022-09-17T03:59:05.773Z,100.00
2022-09-17T04:01:34.401Z,100.00
2022-09-17T04:04:03.786Z,100.00
2022-09-17T04:06:32.446Z,100.00
2022-09-17T04:09:03.500Z,100.00
2022-09-17T04:11:32.129Z,100.00
2022-09-17T04:14:02.085Z,100.00
2022-09-17T04:16:30.717Z,100.00
2022-09-17T04:18:59.289Z,100.00
2022-09-17T04:21:27.908Z,100.00
2022-09-17T04:23:56.553Z,100.00
2022-09-17T04:26:25.083Z,100.00
2022-09-17T04:28:53.605Z,100.00
2022-09-17T04:31:25.093Z,100.00
2022-09-17T04:33:53.686Z,100.00
2022-09-17T04:36:22.266Z,100.00
2022-09-17T04:38:51.117Z,100.00
2022-09-17T04:41:19.638Z,100.00
2022-09-17T04:43:48.153Z,100.00
2022-09-17T04:46:17.164Z,100.00
2022-09-17T04:48:47.241Z,100.00
2022-09-17T04:51:15.781Z,100.00
2022-09-17T04:53:44.290Z,100.00
2022-09-17T04:56:12.881Z,100.00
2022-09-17T04:58:41.475Z,100.00
2022-09-17T05:01:10.055Z,100.00
2022-09-17T05:03:38.579Z,100.00
2022-09-17T05:06:08.730Z,100.00
2022-09-17T05:08:37.507Z,100.00
2022-09-17T05:11:06.360Z,100.00
2022-09-17T05:13:35.045Z,100.00
2022-09-17T05:16:04.024Z,100.00
2022-09-17T05:18:32.559Z,100.00
2022-09-17T05:21:01.099Z,100.00
2022-09-17T05:23:31.005Z,100.00
2022-09-17T05:26:00.716Z,100.00
2022-09-17T05:28:29.741Z,100.00
2022-09-17T05:31:01.198Z,100.00
2022-09-17T05:33:30.215Z,100.00
2022-09-17T05:35:59.939Z,100.00
2022-09-17T05:38:29.824Z,100.00
2022-09-17T05:40:58.392Z,100.00
2022-09-17T05:43:26.948Z,100.00
2022-09-17T05:45:55.621Z,100.00
2022-09-17T05:48:24.140Z,100.00
2022-09-17T05:50:52.746Z,100.00
2022-09-17T05:53:21.267Z,100.00
2022-09-17T05:55:51.217Z,100.00
2022-09-17T05:58:20.893Z,100.00
2022-09-17T06:00:49.909Z,100.00
2022-09-17T06:03:20.492Z,100.00
2022-09-17T06:05:55.787Z,100.00
2022-09-17T06:08:24.378Z,100.00
2022-09-17T06:10:56.987Z,100.00
2022-09-17T06:13:28.872Z,100.00
2022-09-17T06:15:57.541Z,100.00
2022-09-17T06:18:26.726Z,100.00
2022-09-17T06:20:56.073Z,100.00
2022-09-17T06:23:25.254Z,100.00
2022-09-17T06:25:57.509Z,100.00
2022-09-17T06:28:26.701Z,100.00
2022-09-17T06:30:57.298Z,100.00
2022-09-17T06:33:26.853Z,100.00
2022-09-17T06:36:00.661Z,100.00
2022-09-17T06:38:30.337Z,100.00
2022-09-17T06:41:00.707Z,100.00
2022-09-17T06:43:29.646Z,100.00
2022-09-17T06:46:00.164Z,100.00
2022-09-17T06:48:29.434Z,100.00
2022-09-17T06:51:03.425Z,100.00
2022-09-17T06:53:32.480Z,100.00
2022-09-17T06:56:06.455Z,100.00
2022-09-17T06:58:37.118Z,100.00
2022-09-17T07:01:06.965Z,100.00
2022-09-17T07:03:35.872Z,100.00
2022-09-17T07:06:05.107Z,100.00
2022-09-17T07:08:35.473Z,100.00
2022-09-17T07:11:05.475Z,100.00
2022-09-17T07:13:34.055Z,100.00
2022-09-17T07:16:04.695Z,100.00
2022-09-17T07:18:33.758Z,100.00
2022-09-17T07:21:03.946Z,96.09
2022-09-17T07:23:34.648Z,99.51
2022-09-17T07:26:06.249Z,98.36
2022-09-17T07:28:35.008Z,97.67
2022-09-17T07:31:06.507Z,94.95
2022-09-17T07:33:37.559Z,95.24
2022-09-17T07:36:08.182Z,95.64
2022-09-17T07:38:37.167Z,100.00
2022-09-17T07:41:08.763Z,100.00
2022-09-17T07:43:37.547Z,100.00
2022-09-17T07:46:08.772Z,100.00
2022-09-17T07:48:37.316Z,97.58
2022-09-17T07:51:05.998Z,93.44
2022-09-17T07:53:34.555Z,97.21
2022-09-17T07:56:03.427Z,94.64
2022-09-17T07:58:35.986Z,95.29
2022-09-17T08:01:05.521Z,94.40
2022-09-17T08:03:34.312Z,94.75
2022-09-17T08:06:04.965Z,90.78
2022-09-17T08:08:35.822Z,95.45
2022-09-17T08:11:05.571Z,96.63
2022-09-17T08:13:36.159Z,99.78
2022-09-17T08:16:07.264Z,91.54
2022-09-17T08:18:36.356Z,92.69
2022-09-17T08:21:06.994Z,87.57
2022-09-17T08:23:37.421Z,87.92
2022-09-17T08:26:08.637Z,89.78
2022-09-17T08:28:38.554Z,86.91
2022-09-17T08:31:08.916Z,85.78
2022-09-17T08:33:39.150Z,88.03
2022-09-17T08:36:09.499Z,93.49
2022-09-17T08:38:38.976Z,91.13
2022-09-17T08:41:18.941Z,89.56
2022-09-17T08:43:59.745Z,83.55
2022-09-17T08:46:32.294Z,82.19
2022-09-17T08:49:08.595Z,86.28
2022-09-17T08:51:49.172Z,83.64
2022-09-17T08:54:24.375Z,85.39
2022-09-17T08:57:08.886Z,92.74
2022-09-17T08:59:46.982Z,83.18
2022-09-17T09:02:26.056Z,85.60
2022-09-17T09:05:03.894Z,80.70
2022-09-17T09:07:39.091Z,87.10
2022-09-17T09:10:19.860Z,94.07
2022-09-17T09:12:50.634Z,89.40
2022-09-17T09:15:38.235Z,80.18
2022-09-17T09:18:19.416Z,74.81
2022-09-17T09:20:53.593Z,81.21
2022-09-17T09:23:28.393Z,79.24
2022-09-17T09:26:05.008Z,80.11
2022-09-17T09:28:46.472Z,80.16
2022-09-17T09:31:35.853Z,77.64
2022-09-17T09:34:05.201Z,75.72
2022-09-17T09:36:35.303Z,76.61
2022-09-17T09:39:11.047Z,84.91
2022-09-17T09:41:47.336Z,90.35
2022-09-17T09:44:17.289Z,87.76
2022-09-17T09:47:10.600Z,88.99
2022-09-17T09:49:53.557Z,90.44
2022-09-17T09:52:36.636Z,85.26
2022-09-17T09:55:26.370Z,79.74
2022-09-17T09:58:04.227Z,81.54
2022-09-17T10:00:37.348Z,83.76
2022-09-17T10:03:15.124Z,84.66
2022-09-17T10:05:55.702Z,83.03
2022-09-17T10:08:24.451Z,86.17
2022-09-17T10:11:04.479Z,90.16
2022-09-17T10:13:35.679Z,88.82
2022-09-17T10:16:18.951Z,84.02
2022-09-17T10:18:50.041Z,87.07
2022-09-17T10:21:23.179Z,79.41
2022-09-17T10:23:52.218Z,74.81
2022-09-17T10:26:30.033Z,83.02
2022-09-17T10:29:01.543Z,91.82
2022-09-17T10:31:47.022Z,100.00
2022-09-17T10:34:23.789Z,100.00
2022-09-17T10:36:52.954Z,100.00
2022-09-17T10:39:34.178Z,100.00
2022-09-17T10:42:04.810Z,100.00
2022-09-17T10:44:35.196Z,100.00
2022-09-17T10:47:06.575Z,100.00
2022-09-17T10:49:43.610Z,100.00
2022-09-17T10:52:24.841Z,100.00
2022-09-17T10:55:19.346Z,100.00
2022-09-17T10:58:14.692Z,100.00
2022-09-17T11:01:03.187Z,100.00
2022-09-17T11:03:58.629Z,100.00
2022-09-17T11:06:33.803Z,100.00
2022-09-17T11:09:16.331Z,98.29
2022-09-17T11:11:56.605Z,100.00
2022-09-17T11:14:50.441Z,100.00
2022-09-17T11:17:42.415Z,100.00
2022-09-17T11:20:22.660Z,100.00
2022-09-17T11:23:03.523Z,100.00
2022-09-17T11:25:44.780Z,100.00
2022-09-17T11:28:33.933Z,100.00
2022-09-17T11:31:18.394Z,100.00
2022-09-17T11:34:05.841Z,100.00
2022-09-17T11:36:45.331Z,100.00
2022-09-17T11:39:20.969Z,100.00
2022-09-17T11:41:53.319Z,100.00
2022-09-17T11:44:28.450Z,100.00
2022-09-17T11:47:04.418Z,100.00
2022-09-17T11:49:38.723Z,100.00
2022-09-17T11:52:12.435Z,100.00
2022-09-17T11:54:46.919Z,100.00
2022-09-17T11:57:20.554Z,100.00
2022-09-17T11:59:55.509Z,100.00
2022-09-17T12:02:27.631Z,100.00
2022-09-17T12:05:03.342Z,100.00
2022-09-17T12:07:42.291Z,100.00
2022-09-17T12:10:45.231Z,100.00
2022-09-17T12:13:27.152Z,100.00
2022-09-17T12:16:05.558Z,100.00
2022-09-17T12:18:46.786Z,100.00
2022-09-17T12:21:19.435Z,100.00
2022-09-17T12:23:53.215Z,100.00
2022-09-17T12:26:34.865Z,100.00
2022-09-17T12:29:12.530Z,100.00
2022-09-17T12:31:48.972Z,100.00
2022-09-17T12:34:35.048Z,100.00
2022-09-17T12:37:12.240Z,100.00
2022-09-17T12:40:12.756Z,100.00
2022-09-17T12:43:00.896Z,100.00
2022-09-17T12:45:57.641Z,100.00
2022-09-17T12:48:55.991Z,100.00
2022-09-17T12:51:44.924Z,100.00
2022-09-17T12:54:30.549Z,100.00
2022-09-17T12:57:09.697Z,100.00
2022-09-17T12:59:48.183Z,100.00
2022-09-17T13:02:26.316Z,100.00
2022-09-17T13:05:35.713Z,100.00
2022-09-17T13:08:42.141Z,100.00
2022-09-17T13:11:47.973Z,100.00
2022-09-17T13:14:25.408Z,100.00
2022-09-17T13:17:01.585Z,100.00
2022-09-17T13:19:40.416Z,100.00
2022-09-17T13:22:14.814Z,100.00
2022-09-17T13:27:37.624Z,100.00
2022-09-17T13:30:07.794Z,100.00
2022-09-17T13:33:04.018Z,100.00
2022-09-17T13:35:53.074Z,100.00
2022-09-17T13:38:24.382Z,100.00
2022-09-17T13:40:54.017Z,100.00
2022-09-17T13:43:27.731Z,100.00
2022-09-17T13:46:16.976Z,100.00
2022-09-17T13:48:51.795Z,100.00
2022-09-17T13:52:00.157Z,100.00
2022-09-17T13:54:39.865Z,100.00
2022-09-17T13:57:13.171Z,100.00
2022-09-17T13:59:55.580Z,100.00
2022-09-17T14:02:36.504Z,100.00
2022-09-17T14:05:36.462Z,100.00
2022-09-17T14:08:33.185Z,100.00
2022-09-17T14:11:25.420Z,100.00
2022-09-17T14:13:55.456Z,100.00
2022-09-17T14:16:48.672Z,100.00
2022-09-17T14:19:37.960Z,100.00
2022-09-17T14:22:18.520Z,100.00
2022-09-17T14:24:52.863Z,100.00
2022-09-17T14:27:44.367Z,100.00
2022-09-17T14:30:16.775Z,100.00
2022-09-17T14:32:53.703Z,100.00
2022-09-17T14:35:26.240Z,100.00
2022-09-17T14:38:00.884Z,100.00
2022-09-17T14:40:31.839Z,100.00
2022-09-17T14:43:03.816Z,100.00
2022-09-17T14:45:37.973Z,100.00
2022-09-17T14:48:37.638Z,100.00
2022-09-17T14:51:29.103Z,100.00
2022-09-17T14:54:18.898Z,100.00
2022-09-17T14:56:52.342Z,100.00
2022-09-17T14:59:38.972Z,100.00
2022-09-17T15:02:30.321Z,100.00
2022-09-17T15:05:00.241Z,100.00
2022-09-17T15:07:29.115Z,100.00
2022-09-17T15:10:09.125Z,100.00
2022-09-17T15:12:39.536Z,100.00
2022-09-17T15:15:18.066Z,100.00
2022-09-17T15:17:47.469Z,100.00
2022-09-17T15:20:20.969Z,100.00
2022-09-17T15:22:56.337Z,100.00
2022-09-17T15:25:26.774Z,100.00
2022-09-17T15:27:59.670Z,100.00
2022-09-17T15:30:29.736Z,100.00
2022-09-17T15:33:00.174Z,100.00
2022-09-17T15:35:30.453Z,100.00
2022-09-17T15:40:51.762Z,100.00
2022-09-17T15:43:26.674Z,100.00
2022-09-17T15:45:58.265Z,100.00
2022-09-17T15:48:38.513Z,100.00
2022-09-17T15:51:16.098Z,100.00
2022-09-17T15:53:54.243Z,100.00
2022-09-17T15:56:26.505Z,100.00
2022-09-17T15:59:03.464Z,100.00
2022-09-17T16:01:55.832Z,100.00
2022-09-17T16:04:28.185Z,100.00
2022-09-17T16:07:02.747Z,100.00
2022-09-17T16:09:49.873Z,100.00
2022-09-17T16:12:20.574Z,100.00
2022-09-17T16:14:51.598Z,99.91
2022-09-17T16:17:33.026Z,100.00
2022-09-17T16:20:10.224Z,97.66
2022-09-17T16:22:38.745Z,100.00
2022-09-17T16:25:08.123Z,100.00
2022-09-17T16:27:46.251Z,100.00
2022-09-17T16:30:18.164Z,100.00
2022-09-17T16:32:46.962Z,100.00
2022-09-17T16:35:18.998Z,100.00
2022-09-17T16:37:50.284Z,100.00
2022-09-17T16:40:19.871Z,100.00
2022-09-17T16:42:48.968Z,100.00
2022-09-17T16:45:17.974Z,100.00
2022-09-17T16:47:46.682Z,100.00
2022-09-17T16:50:18.477Z,100.00
2022-09-17T16:52:47.540Z,97.59
2022-09-17T16:55:18.245Z,100.00
2022-09-17T16:57:47.648Z,100.00
2022-09-17T17:00:19.636Z,96.33
2022-09-17T17:02:55.241Z,92.64
2022-09-17T17:05:26.794Z,96.42
2022-09-17T17:07:56.029Z,99.78
2022-09-17T17:10:26.630Z,100.00
2022-09-17T17:12:55.329Z,100.00
2022-09-17T17:15:24.151Z,100.00
2022-09-17T17:17:52.691Z,100.00
2022-09-17T17:20:21.318Z,100.00
2022-09-17T17:22:52.001Z,100.00
2022-09-17T17:25:20.962Z,94.11
2022-09-17T17:27:49.479Z,99.24
2022-09-17T17:30:18.391Z,100.00
2022-09-17T17:32:50.994Z,100.00
2022-09-17T17:35:20.057Z,96.46
2022-09-17T17:37:50.595Z,94.52
2022-09-17T17:40:19.632Z,97.92
2022-09-17T17:42:53.579Z,98.35
2022-09-17T17:45:22.574Z,93.17
2022-09-17T17:47:51.096Z,98.52
2022-09-17T17:50:19.828Z,92.67
2022-09-17T17:52:49.134Z,98.28
2022-09-17T17:55:19.067Z,94.35
2022-09-17T17:57:47.613Z,95.38
2022-09-17T18:00:18.408Z,96.05
2022-09-17T18:02:47.017Z,100.00
2022-09-17T18:05:15.643Z,94.77
2022-09-17T18:07:44.350Z,96.25
2022-09-17T18:10:13.169Z,93.41
2022-09-17T18:12:50.114Z,96.98
2022-09-17T18:15:18.809Z,98.14
2022-09-17T18:17:49.977Z,99.17
2022-09-17T18:20:19.395Z,100.00
2022-09-17T18:22:48.093Z,99.42
2022-09-17T18:25:16.762Z,99.51
2022-09-17T18:27:46.623Z,100.00
2022-09-17T18:30:15.405Z,98.77
2022-09-17T18:32:43.961Z,96.00
2022-09-17T18:35:12.484Z,97.39
2022-09-17T18:37:41.017Z,94.24
2022-09-17T18:40:10.398Z,100.00
2022-09-17T18:42:38.974Z,97.00
2022-09-17T18:45:10.825Z,99.42
2022-09-17T18:47:39.362Z,99.68
2022-09-17T18:50:08.740Z,97.44
2022-09-17T18:52:37.288Z,99.85
2022-09-17T18:55:06.230Z,97.60
2022-09-17T18:57:34.790Z,100.00
2022-09-17T19:00:06.309Z,96.57
2022-09-17T19:02:36.240Z,99.93
2022-09-17T19:05:04.961Z,95.62
2022-09-17T19:07:33.485Z,100.00
2022-09-17T19:10:02.925Z,100.00
2022-09-17T19:12:31.916Z,96.03
2022-09-17T19:15:00.427Z,100.00
2022-09-17T19:17:29.742Z,100.00
2022-09-17T19:19:59.630Z,100.00
2022-09-17T19:22:28.154Z,100.00
2022-09-17T19:24:56.817Z,96.37
2022-09-17T19:27:25.363Z,99.77
2022-09-17T19:29:55.214Z,98.85
2022-09-17T19:32:23.735Z,100.00
2022-09-17T19:34:52.295Z,96.78
2022-09-17T19:37:22.149Z,99.93
2022-09-17T19:39:50.816Z,99.80
2022-09-17T19:42:19.483Z,100.00
2022-09-17T19:44:48.014Z,98.29
2022-09-17T19:47:16.508Z,98.04
2022-09-17T19:49:46.819Z,100.00
2022-09-17T19:52:15.373Z,97.89
2022-09-17T19:54:45.252Z,96.29
2022-09-17T19:57:14.004Z,99.69
2022-09-17T19:59:42.511Z,100.00
2022-09-17T20:02:12.615Z,99.95
2022-09-17T20:04:41.156Z,98.68
2022-09-17T20:07:09.726Z,100.00
2022-09-17T20:09:38.271Z,98.40
2022-09-17T20:12:08.539Z,100.00
2022-09-17T20:14:37.092Z,100.00
2022-09-17T20:17:05.759Z,100.00
2022-09-17T20:19:34.284Z,100.00
2022-09-17T20:22:02.822Z,100.00
2022-09-17T20:24:31.335Z,100.00
2022-09-17T20:26:59.864Z,100.00
2022-09-17T20:29:29.712Z,100.00
2022-09-17T20:31:58.251Z,100.00
2022-09-17T20:34:26.851Z,100.00
2022-09-17T20:37:12.183Z,100.00
2022-09-17T20:39:41.452Z,100.00
2022-09-17T20:42:10.239Z,100.00
2022-09-17T20:44:40.094Z,100.00
2022-09-17T20:47:08.679Z,100.00
2022-09-17T20:49:37.184Z,100.00
2022-09-17T20:52:05.860Z,100.00
2022-09-17T20:54:34.413Z,100.00
2022-09-17T20:57:02.955Z,100.00
2022-09-17T20:59:50.148Z,100.00
2022-09-17T21:02:21.752Z,100.00
2022-09-17T21:04:51.177Z,100.00
2022-09-17T21:07:19.712Z,100.00
2022-09-17T21:09:48.263Z,100.00
2022-09-17T21:12:16.867Z,100.00
2022-09-17T21:14:45.373Z,100.00
2022-09-17T21:17:14.061Z,100.00
2022-09-17T21:19:43.913Z,100.00
2022-09-17T21:22:12.467Z,100.00
2022-09-17T21:24:40.961Z,100.00
2022-09-17T21:27:09.506Z,100.00
2022-09-17T21:29:38.053Z,100.00
2022-09-17T21:32:06.609Z,100.00
2022-09-17T21:34:35.146Z,100.00
2022-09-17T21:37:05.651Z,100.00
2022-09-17T21:39:35.586Z,100.00
2022-09-17T21:42:04.186Z,100.00
2022-09-17T21:44:32.750Z,100.00
2022-09-17T21:47:01.372Z,100.00
2022-09-17T21:49:29.880Z,100.00
2022-09-17T21:51:58.402Z,100.00
2022-09-17T21:54:28.246Z,100.00
2022-09-17T21:56:56.764Z,100.00
2022-09-17T21:59:25.275Z,100.00
2022-09-17T22:01:56.390Z,100.00
2022-09-17T22:04:25.741Z,100.00
2022-09-17T22:06:55.553Z,100.00
2022-09-17T22:09:25.502Z,100.00
2022-09-17T22:11:55.532Z,100.00
2022-09-17T22:14:25.588Z,100.00
2022-09-17T22:16:56.956Z,100.00
2022-09-17T22:19:26.710Z,100.00
2022-09-17T22:21:56.658Z,100.00
2022-09-17T22:24:25.786Z,100.00
2022-09-17T22:26:58.049Z,100.00
2022-09-17T22:29:30.249Z,100.00
2022-09-17T22:31:58.775Z,100.00
2022-09-17T22:34:27.293Z,100.00
2022-09-17T22:36:55.835Z,100.00
2022-09-17T22:39:24.521Z,100.00
2022-09-17T22:41:54.769Z,100.00
2022-09-17T22:44:23.605Z,100.00
2022-09-17T22:46:52.813Z,100.00
2022-09-17T22:49:21.503Z,100.00
2022-09-17T22:51:50.203Z,100.00
2022-09-17T22:54:19.935Z,100.00
2022-09-17T22:56:50.179Z,100.00
2022-09-17T22:59:21.635Z,100.00
2022-09-17T23:01:50.206Z,100.00
2022-09-17T23:04:18.773Z,100.00
2022-09-17T23:06:47.300Z,100.00
2022-09-17T23:09:16.223Z,100.00
2022-09-17T23:11:45.198Z,100.00
2022-09-17T23:14:14.729Z,100.00
2022-09-17T23:16:46.891Z,100.00
2022-09-17T23:19:17.248Z,100.00
2022-09-17T23:21:46.746Z,100.00
2022-09-17T23:24:20.347Z,100.00
2022-09-17T23:26:49.418Z,100.00
2022-09-17T23:29:18.691Z,100.00
2022-09-17T23:31:48.780Z,100.00
2022-09-17T23:34:17.469Z,100.00
2022-09-17T23:36:47.486Z,100.00
2022-09-17T23:39:16.119Z,100.00
2022-09-17T23:41:45.620Z,100.00
2022-09-17T23:44:16.329Z,100.00
2022-09-17T23:46:47.280Z,100.00
2022-09-17T23:49:16.731Z,100.00
2022-09-17T23:51:45.945Z,100.00
2022-09-17T23:54:14.781Z,100.00
2022-09-17T23:56:43.803Z,100.00
2022-09-17T23:59:12.633Z,100.00
